Nearby METAR Reports

KLNK - Lincoln, Nebraska, USA
Distance from station: WNW 8mi, 13km
Updated: Sun, 22-Apr-2018 11:54pm CDT
Clear
Clear
 Wind from NNW
Wind: NNW 5 mph , 7 km/h
Temperature: 48°F , 9°C
Wind Chill: 46°F , 8°C
Dew Point: 32°F , 0°C
Humidity: 54%
Barometer: 30.17 inHg , 1021.7 hPa
Clouds: Clear
Visibility: 10 miles , 16 km
2018/04/23 04:54 KLNK 230454Z AUTO 33004KT 10SM CLR 09/00 A3017 RMK AO2 SLP215 T00890000
KAHQ - Wahoo, Nebraska, USA
Distance from station: N 31mi, 49km
Updated: Mon, 23-Apr-2018 12:15am CDT
Clear
Clear
 Wind from N
Wind: N 7 mph , 11 km/h
Temperature: 46°F , 8°C
Wind Chill: 42°F , 6°C
Dew Point: 28°F , -2°C
Humidity: 50%
Barometer: 30.17 inHg , 1021.7 hPa
Clouds: Clear
Visibility: 10 miles , 16 km
2018/04/23 05:15 KAHQ 230515Z AUTO 36006KT 10SM CLR 08/M02 A3017 RMK AO2 T00801017
 
KBIE - Beatrice Municip, Nebraska, USA
Distance from station: S 36mi, 57km
Updated: Mon, 23-Apr-2018 12:15am CDT
Clear
Clear
 Wind from NE
Wind: NE 5 mph , 7 km/h
Temperature: 50°F , 10°C
Wind Chill: 48°F , 9°C
Dew Point: 36°F , 2°C
Humidity: 58%
Barometer: 30.14 inHg , 1020.7 hPa
Clouds: Clear
Visibility: 10 miles , 16 km
2018/04/23 05:15 KBIE 230515Z AUTO 05004KT 10SM CLR 10/02 A3014 RMK AO2 T01000015
KMLE - Omaha/Millard, Nebraska, USA
Distance from station: NE 39mi, 63km
Updated: Mon, 23-Apr-2018 12:15am CDT
Clear
Clear
 Wind from calm
Wind: Calm
Temperature: 55°F , 13°C
Dew Point: 30°F , -1°C
Humidity: 38%
Barometer: 30.17 inHg , 1021.7 hPa
Clouds: Clear
Visibility: 10 miles , 16 km
2018/04/23 05:15 KMLE 230515Z AUTO 00000KT 10SM CLR 13/M01 A3017 RMK AO2 T01321010
 
KPMV - Plattsmouth Muni, Nebraska, USA
Distance from station: ENE 39mi, 63km
Updated: Mon, 23-Apr-2018 12:15am CDT
Clear
Clear
 Wind from ENE
Wind: ENE 7 mph , 11 km/h
Temperature: 54°F , 12°C
Dew Point: 28°F , -2°C
Humidity: 38%
Barometer: 30.16 inHg , 1021.3 hPa
Clouds: Clear
Visibility: 10 miles , 16 km
2018/04/23 05:15 KPMV 230515Z AUTO 06006KT 10SM CLR 12/M02 A3016 RMK AO2 T01201025
KAFK - Nebraska City, Nebraska, USA
Distance from station: ESE 43mi, 69km
Updated: Mon, 23-Apr-2018 12:15am CDT
Clear
Clear
 Wind from NNE
Wind: NNE 3 mph , 6 km/h
Temperature: 54°F , 12°C
Dew Point: 32°F , 0°C
Humidity: 44%
Barometer: 30.15 inHg , 1021 hPa
Clouds: Clear
Visibility: 10 miles , 16 km
2018/04/23 05:15 KAFK 230515Z AUTO 02003KT 10SM CLR 12/00 A3015 RMK AO2 T01170003
 
KOFF - Offutt Afb/Belle, Nebraska, USA
Distance from station: ENE 44mi, 70km
Updated: Sun, 22-Apr-2018 11:56pm CDT
Clear
Clear
 Wind from NE
Wind: NE 6 mph , 9 km/h
Temperature: 52°F , 11°C
Dew Point: 28°F , -2°C
Humidity: 41%
Barometer: 30.15 inHg , 1021 hPa
Clouds: Clear
Visibility: 10 miles , 16 km
2018/04/23 04:56 KOFF 230456Z AUTO 05005KT 10SM CLR 11/M02 A3015 RMK AO2 SLP214 T01051019 $
KFET - Fremont Muni Arp, Nebraska, USA
Distance from station: N 46mi, 74km
Updated: Mon, 23-Apr-2018 12:15am CDT
Clear
Clear
 Wind from calm
Wind: Calm
Temperature: 46°F , 8°C
Dew Point: 32°F , 0°C
Humidity: 57%
Barometer: 30.18 inHg , 1022 hPa
Clouds: Clear
Visibility: 10 miles , 16 km
2018/04/23 05:15 KFET 230515Z AUTO 00000KT 10SM CLR 08/00 A3018 RMK AO2 T00830002
 
KBTA - Blair Muni, Nebraska, USA
Distance from station: NNE 51mi, 82km
Updated: Mon, 23-Apr-2018 12:15am CDT
Clear
Clear
 Wind from NNE
Wind: NNE 8 mph , 13 km/h
Temperature: 52°F , 11°C
Dew Point: 30°F , -1°C
Humidity: 44%
Barometer: 30.17 inHg , 1021.7 hPa
Clouds: Clear
Visibility: 10 miles , 16 km
2018/04/23 05:15 KBTA 230515Z AUTO 03007KT 10SM CLR 11/M01 A3017 RMK AO2 T01051012
KJYR - York, Nebraska, USA
Distance from station: W 52mi, 84km
Updated: Mon, 23-Apr-2018 12:15am CDT

 Wind from calm
Wind: Calm
Temperature: 52°F , 11°C
Dew Point: 37°F , 3°C
Humidity: 58%
Barometer: 30.17 inHg , 1021.7 hPa
Visibility: 10 miles , 16 km
2018/04/23 05:15 KJYR 230515Z AUTO 00000KT 10SM 11/03 A3017 RMK AO2
 
KOMA - Omaha/Eppley, Nebraska, USA
Distance from station: NE 53mi, 85km
Updated: Sun, 22-Apr-2018 11:52pm CDT
Clear
Clear
 Wind from NNW
Wind: NNW 10 mph , 17 km/h
Temperature: 48°F , 9°C
Wind Chill: 44°F , 7°C
Dew Point: 30°F , -1°C
Humidity: 50%
Barometer: 30.17 inHg , 1021.7 hPa
Clouds: Clear
Visibility: 10 miles , 16 km
2018/04/23 04:52 KOMA 230452Z 34009KT 10SM CLR 09/M01 A3017 RMK AO2 SLP214 T00941011
KOLU - Columbus Muni, Nebraska, USA
Distance from station: NW 58mi, 93km
Updated: Sun, 22-Apr-2018 11:56pm CDT
Overcast
Overcast
 Wind from NE
Wind: NE 6 mph , 9 km/h
Temperature: 52°F , 11°C
Dew Point: 36°F , 2°C
Humidity: 54%
Barometer: 30.18 inHg , 1022 hPa
Clouds: Overcast
Visibility: 10 miles , 16 km
Cloud details: Overcast 9000 ft
2018/04/23 04:56 KOLU 230456Z AUTO 05005KT 10SM OVC090 11/02 A3018 RMK AO2 SLP223 T01110022